KSHV/SHV METAR and TAF weather

Enter ICAO airport designator
Station Type Date Time Source
KSHV METAR 2021/09/23 23:56 UTC NOAA

KSHV 232356Z 03006KT 10SM FEW280 26/06 A3003 RMK AO2 SLP166 T02560061 10300 20256 58002


Station Type Date Time Source
KSHV Decoded METAR 2021/09/23 23:56 UTC NOAA

SHREVEPORT REGIONAL AIRPORT, LA, United States (KSHV) 32-27N 93-50W 80M
Sep 23, 2021 - 07:56 PM EDT / 2021.09.23 2356 UTC
Wind: from the NNE (030 degrees) at 7 MPH (6 KT):0
Visibility: 10 mile(s):0
Sky conditions: mostly clear
Temperature: 78.1 F (25.6 C)
Dew Point: 43.0 F (6.1 C)
Relative Humidity: 28%
Pressure (altimeter): 30.03 in. Hg (1016 hPa)
Pressure tendency: 0.01 inches (0.2 hPa) lower than three hours ago
ob: KSHV 232356Z 03006KT 10SM FEW280 26/06 A3003 RMK AO2 SLP166 T02560061 10300 20256 58002
cycle: 0

Station Type Date Time Source
KSHV TAF 2021/09/23 18:24 UTC NOAA

TAF KSHV 231723Z 2318/2418 VRB03KT P6SM SKC
FM240300 VRB03KT P6SM FEW250
FM241500 18005KT P6SM SCT250

Example: see airport list